Time;durP1;ratioP1;P1;durP2;ratioP2;P2;SDS_P1;SDS_P2;PMS_P1;PMS_P2;Temp;Humidity;BMP_temperature;BMP_pressure;BME280_temperature;BME280_humidity;BME280_pressure;Samples;Min_cycle;Max_cycle;Signal;HPM_P1;HPM_P2
2023/10/09 00:00:50;;;;;;;3.15;0.80;;;22.50;99.90;;;;;;5067526;28;20232;-71
2023/10/09 00:03:24;;;;;;;2.38;0.70;;;22.70;99.90;;;;;;5070523;28;20549;-73
2023/10/09 00:05:56;;;;;;;2.20;0.63;;;22.80;99.90;;;;;;5069154;28;20533;-72
2023/10/09 00:08:30;;;;;;;5.18;0.90;;;22.80;99.90;;;;;;5068832;28;21826;-76
2023/10/09 00:11:13;;;;;;;3.95;0.77;;;22.90;99.90;;;;;;5070390;28;20192;-77
2023/10/09 00:13:48;;;;;;;3.08;0.60;;;23.00;99.90;;;;;;5072143;28;20196;-76
2023/10/09 00:16:32;;;;;;;1.85;0.70;;;23.30;99.90;;;;;;5066233;28;20205;-72
2023/10/09 00:19:17;;;;;;;1.65;0.70;;;23.30;99.90;;;;;;5068804;28;20201;-72
2023/10/09 00:21:48;;;;;;;6.75;0.95;;;23.30;99.90;;;;;;5073076;28;20200;-72
2023/10/09 00:24:23;;;;;;;4.88;0.90;;;23.50;99.90;;;;;;5073365;28;20262;-74
2023/10/09 00:26:55;;;;;;;2.47;0.68;;;23.60;99.90;;;;;;5072410;28;20196;-72
2023/10/09 00:29:31;;;;;;;2.58;0.77;;;23.70;99.90;;;;;;5069003;28;20201;-73
2023/10/09 00:32:13;;;;;;;3.60;0.70;;;23.80;99.90;;;;;;5071604;28;20224;-72
2023/10/09 00:34:50;;;;;;;3.45;0.88;;;24.00;99.90;;;;;;5071128;28;20656;-72
2023/10/09 00:37:24;;;;;;;1.08;0.55;;;24.10;99.90;;;;;;5075637;28;20279;-73
2023/10/09 00:39:57;;;;;;;2.90;0.60;;;24.20;99.90;;;;;;5074792;28;20612;-72
2023/10/09 00:42:29;;;;;;;5.75;1.00;;;24.30;99.90;;;;;;5073216;28;20204;-73
2023/10/09 00:45:03;;;;;;;1.52;0.55;;;24.30;99.90;;;;;;5071631;28;20628;-73
2023/10/09 00:47:35;;;;;;;1.90;0.40;;;24.40;99.90;;;;;;5073614;28;20208;-72
2023/10/09 00:50:20;;;;;;;1.45;0.63;;;24.60;99.90;;;;;;5074747;28;20561;-74
2023/10/09 00:53:01;;;;;;;4.30;0.75;;;24.80;99.90;;;;;;5071530;28;20197;-73
2023/10/09 00:55:44;;;;;;;2.58;0.60;;;25.00;99.90;;;;;;5068351;28;20283;-75
2023/10/09 00:58:23;;;;;;;2.50;1.02;;;25.00;99.90;;;;;;5068711;28;20648;-73
2023/10/09 01:00:54;;;;;;;3.25;0.90;;;24.90;99.90;;;;;;5072102;28;20197;-72
2023/10/09 01:03:26;;;;;;;2.28;0.63;;;24.90;99.90;;;;;;5069465;28;20573;-72
2023/10/09 01:06:15;;;;;;;2.00;0.80;;;25.00;99.90;;;;;;5071729;28;20635;-70
2023/10/09 01:08:55;;;;;;;2.63;0.70;;;25.20;99.90;;;;;;5073812;28;20224;-71
2023/10/09 01:11:29;;;;;;;4.55;0.70;;;25.10;99.90;;;;;;5072868;28;20199;-74
2023/10/09 01:14:11;;;;;;;3.03;0.77;;;25.10;99.90;;;;;;5073868;28;20191;-73
2023/10/09 01:16:47;;;;;;;2.85;0.70;;;25.10;99.90;;;;;;5073925;28;20250;-73
2023/10/09 01:19:27;;;;;;;3.42;0.60;;;24.90;99.90;;;;;;5074631;28;20203;-73
2023/10/09 01:22:04;;;;;;;3.03;0.70;;;24.90;99.90;;;;;;5068632;28;20561;-74
2023/10/09 01:24:38;;;;;;;3.05;0.70;;;25.10;99.90;;;;;;5072619;28;20189;-74
2023/10/09 01:27:14;;;;;;;3.10;0.70;;;25.30;99.90;;;;;;5072482;28;20199;-75
2023/10/09 01:29:45;;;;;;;4.88;1.02;;;25.50;99.90;;;;;;5069260;28;20283;-73
2023/10/09 01:32:19;;;;;;;4.38;0.80;;;25.60;99.90;;;;;;5066252;28;20202;-76
2023/10/09 01:34:50;;;;;;;2.92;0.68;;;25.50;99.90;;;;;;5072555;28;20193;-76
2023/10/09 01:37:22;;;;;;;1.73;0.65;;;25.70;99.90;;;;;;5062280;28;20251;-78
2023/10/09 01:39:58;;;;;;;2.55;0.60;;;25.50;99.90;;;;;;5064278;28;20269;-77
2023/10/09 01:42:34;;;;;;;3.47;0.75;;;25.60;99.90;;;;;;5068439;28;20284;-74
2023/10/09 01:45:15;;;;;;;4.28;0.80;;;25.60;99.90;;;;;;5068328;28;20235;-77
2023/10/09 01:47:51;;;;;;;4.80;1.10;;;25.60;99.90;;;;;;5070882;28;20217;-74
2023/10/09 01:50:24;;;;;;;5.47;0.90;;;25.60;99.90;;;;;;5068428;28;20201;-74
2023/10/09 01:52:55;;;;;;;2.75;0.73;;;25.60;99.90;;;;;;5074378;28;20283;-77
2023/10/09 01:55:34;;;;;;;2.55;0.60;;;25.60;99.90;;;;;;5073676;28;20210;-79
2023/10/09 01:58:09;;;;;;;4.15;0.63;;;25.60;99.90;;;;;;5066591;28;20293;-77
2023/10/09 02:00:43;;;;;;;2.35;0.70;;;25.50;99.90;;;;;;5068331;28;20211;-73
2023/10/09 02:03:23;;;;;;;2.15;0.80;;;25.50;99.90;;;;;;5073557;28;20224;-78
2023/10/09 02:06:25;;;;;;;2.85;0.70;;;25.40;99.90;;;;;;5070471;28;20286;-75
2023/10/09 02:08:49;;;;;;;1.02;0.60;;;25.20;99.90;;;;;;5070698;28;20318;-77
2023/10/09 02:11:24;;;;;;;2.60;0.60;;;25.10;99.90;;;;;;5072749;28;20197;-74
2023/10/09 02:14:00;;;;;;;3.88;0.55;;;25.00;99.90;;;;;;5072385;28;20656;-77
2023/10/09 02:16:41;;;;;;;3.38;0.60;;;25.00;99.90;;;;;;5070657;28;20199;-73
2023/10/09 02:19:29;;;;;;;4.10;1.02;;;25.00;99.90;;;;;;5061316;28;20193;-75
2023/10/09 02:22:02;;;;;;;3.17;0.70;;;25.20;99.90;;;;;;5065516;28;20197;-76
2023/10/09 02:24:57;;;;;;;2.92;0.60;;;25.10;99.90;;;;;;5069586;28;20197;-76
2023/10/09 02:27:53;;;;;;;2.55;0.80;;;25.00;99.90;;;;;;5066474;28;20255;-73
2023/10/09 02:30:29;;;;;;;3.55;0.70;;;24.70;99.90;;;;;;5070788;28;20250;-77
2023/10/09 02:33:06;;;;;;;5.30;0.73;;;24.80;99.90;;;;;;5076993;28;20239;-75
2023/10/09 02:35:42;;;;;;;2.40;0.70;;;24.80;99.90;;;;;;5071669;28;20201;-76
2023/10/09 02:38:14;;;;;;;4.22;0.90;;;24.70;99.90;;;;;;5074339;28;20189;-76
2023/10/09 02:41:14;;;;;;;4.38;0.82;;;24.80;99.90;;;;;;5074276;28;20237;-79
2023/10/09 02:43:50;;;;;;;3.78;0.73;;;24.80;99.90;;;;;;5068690;28;20200;-75
2023/10/09 02:46:28;;;;;;;4.15;0.77;;;24.70;99.90;;;;;;5073111;28;20245;-76
2023/10/09 02:49:03;;;;;;;3.70;0.82;;;24.70;99.90;;;;;;5073504;28;20763;-76
2023/10/09 02:51:41;;;;;;;1.85;0.70;;;24.60;99.90;;;;;;5073814;28;20684;-76
2023/10/09 02:54:34;;;;;;;1.98;0.60;;;24.70;99.90;;;;;;5070640;28;20201;-76
2023/10/09 02:57:08;;;;;;;4.40;0.80;;;24.60;99.90;;;;;;5071921;28;20197;-74
2023/10/09 02:59:44;;;;;;;2.95;0.68;;;24.50;99.90;;;;;;5069900;28;20220;-74
2023/10/09 03:02:15;;;;;;;2.88;0.77;;;24.40;99.90;;;;;;5063505;28;20601;-73
2023/10/09 03:04:46;;;;;;;2.72;0.80;;;24.40;99.90;;;;;;5066147;28;20205;-73
2023/10/09 03:07:17;;;;;;;3.67;0.70;;;24.40;99.90;;;;;;5072625;28;20201;-75
2023/10/09 03:09:48;;;;;;;3.45;0.70;;;24.30;99.90;;;;;;5068262;28;20248;-73
2023/10/09 03:12:19;;;;;;;3.83;0.80;;;24.30;99.90;;;;;;5074473;28;20196;-75
2023/10/09 03:14:51;;;;;;;2.40;0.93;;;24.30;99.90;;;;;;5070885;28;20761;-73
2023/10/09 03:17:22;;;;;;;3.30;0.80;;;24.40;99.90;;;;;;5066015;28;20653;-74
2023/10/09 03:19:53;;;;;;;5.22;0.80;;;24.40;99.90;;;;;;5069818;28;20276;-75
2023/10/09 03:22:24;;;;;;;2.65;0.80;;;24.10;99.90;;;;;;5071780;28;20207;-73
2023/10/09 03:24:55;;;;;;;3.08;0.82;;;24.10;99.90;;;;;;5072609;28;20197;-75
2023/10/09 03:27:26;;;;;;;2.72;0.75;;;24.10;99.90;;;;;;5071481;28;20406;-77
2023/10/09 03:29:58;;;;;;;1.83;0.68;;;24.10;99.90;;;;;;5059501;28;20220;-74
2023/10/09 03:32:29;;;;;;;3.92;0.80;;;24.00;99.90;;;;;;5072626;28;20196;-75
2023/10/09 03:35:00;;;;;;;2.78;0.80;;;24.00;99.90;;;;;;5071706;28;20684;-75
2023/10/09 03:37:35;;;;;;;3.63;0.65;;;24.00;99.90;;;;;;5061085;28;20197;-77
2023/10/09 03:40:08;;;;;;;2.88;0.88;;;24.00;99.90;;;;;;5071735;28;20234;-75
2023/10/09 03:42:42;;;;;;;2.70;0.60;;;23.80;99.90;;;;;;5065757;28;20205;-75
2023/10/09 03:45:24;;;;;;;2.70;0.90;;;23.70;99.90;;;;;;5052910;28;20216;-75
2023/10/09 03:48:09;;;;;;;3.05;0.75;;;23.60;99.90;;;;;;5052715;28;20194;-75
2023/10/09 03:50:43;;;;;;;4.13;0.75;;;23.60;99.90;;;;;;5053221;28;20193;-75
2023/10/09 03:53:13;;;;;;;3.38;0.80;;;23.60;99.90;;;;;;5052601;28;20263;-75
2023/10/09 03:55:44;;;;;;;1.85;0.50;;;23.60;99.90;;;;;;5067079;28;20188;-76
2023/10/09 03:58:18;;;;;;;4.93;0.70;;;23.60;99.90;;;;;;5072858;28;20188;-75
2023/10/09 04:00:51;;;;;;;1.60;0.70;;;23.60;99.90;;;;;;5072599;28;20195;-74
2023/10/09 04:03:24;;;;;;;2.78;0.65;;;23.70;99.90;;;;;;5073290;28;20195;-76
2023/10/09 04:05:55;;;;;;;2.78;0.80;;;23.60;99.90;;;;;;5072046;28;20660;-76
2023/10/09 04:08:30;;;;;;;6.88;0.63;;;23.50;99.90;;;;;;5072035;28;20270;-73
2023/10/09 04:11:04;;;;;;;2.90;0.70;;;23.40;99.90;;;;;;5071307;28;20188;-73
2023/10/09 04:13:36;;;;;;;2.65;0.70;;;23.30;99.90;;;;;;5061610;28;20745;-71
2023/10/09 04:16:28;;;;;;;4.40;0.70;;;23.40;99.90;;;;;;5072780;28;20204;-75
2023/10/09 04:18:59;;;;;;;3.10;0.60;;;23.40;99.90;;;;;;5052818;28;20223;-74
2023/10/09 04:21:34;;;;;;;3.90;0.80;;;23.30;99.90;;;;;;5052767;28;20240;-74
2023/10/09 04:24:22;;;;;;;3.50;0.77;;;23.30;99.90;;;;;;5052762;28;20193;-74
2023/10/09 04:26:58;;;;;;;2.78;0.88;;;23.30;99.90;;;;;;5071410;28;20204;-74
2023/10/09 04:29:28;;;;;;;4.90;0.70;;;23.40;99.90;;;;;;5071992;28;20282;-72
2023/10/09 04:32:07;;;;;;;3.28;0.60;;;23.30;99.90;;;;;;5071617;28;20646;-71
2023/10/09 04:34:48;;;;;;;4.28;0.70;;;23.40;99.90;;;;;;5070015;28;20259;-72
2023/10/09 04:37:36;;;;;;;4.78;0.80;;;23.20;99.90;;;;;;5071478;28;20193;-79
2023/10/09 04:40:40;;;;;;;7.55;1.58;;;23.20;99.90;;;;;;5072132;28;20280;-72
2023/10/09 04:43:06;;;;;;;3.00;0.70;;;23.10;99.90;;;;;;5070763;28;20201;-74
2023/10/09 04:48:37;;;;;;;5.55;1.55;;;23.00;99.90;;;;;;5072755;28;20262;-74
2023/10/09 04:51:34;;;;;;;3.38;0.70;;;23.00;99.90;;;;;;5072231;28;20203;-76
2023/10/09 04:54:14;;;;;;;2.40;0.60;;;22.90;99.90;;;;;;5068792;28;20233;-72
2023/10/09 04:56:53;;;;;;;5.72;0.80;;;22.80;99.90;;;;;;5060952;28;20193;-73
2023/10/09 04:59:25;;;;;;;3.97;0.70;;;22.90;99.90;;;;;;5058424;28;20205;-73
2023/10/09 05:02:04;;;;;;;4.25;0.90;;;23.00;99.90;;;;;;5053837;28;20190;-74
2023/10/09 05:04:42;;;;;;;5.45;0.88;;;23.00;99.90;;;;;;5064990;28;20284;-72
2023/10/09 05:07:24;;;;;;;3.50;0.80;;;23.00;99.90;;;;;;5085105;28;20192;-73
2023/10/09 05:10:09;;;;;;;3.38;0.73;;;23.10;99.90;;;;;;5082069;28;20209;-73
2023/10/09 05:12:46;;;;;;;3.28;0.80;;;23.10;99.90;;;;;;5060819;28;20228;-73
2023/10/09 05:15:17;;;;;;;6.28;0.90;;;23.20;99.90;;;;;;5074885;28;20228;-72
2023/10/09 05:17:56;;;;;;;4.68;0.82;;;23.10;99.90;;;;;;5077343;28;20656;-71
2023/10/09 05:23:25;;;;;;;4.57;0.70;;;23.10;99.90;;;;;;5075746;28;20204;-71
2023/10/09 05:25:55;;;;;;;3.10;0.80;;;23.00;99.90;;;;;;5070151;28;20218;-71
2023/10/09 05:28:48;;;;;;;2.78;0.63;;;23.00;99.90;;;;;;5075029;28;20200;-71
2023/10/09 05:34:06;;;;;;;3.28;0.80;;;23.00;99.90;;;;;;5074137;28;20240;-72
2023/10/09 05:36:37;;;;;;;3.40;0.50;;;23.00;99.90;;;;;;5071700;28;20228;-71
2023/10/09 05:39:22;;;;;;;2.42;0.50;;;23.00;99.90;;;;;;5073739;28;20204;-71
2023/10/09 05:41:59;;;;;;;3.45;0.57;;;23.00;99.90;;;;;;5074287;28;20200;-71
2023/10/09 05:47:35;;;;;;;4.38;0.55;;;22.70;99.90;;;;;;5069713;28;20192;-73
2023/10/09 05:53:17;;;;;;;2.30;0.68;;;22.70;99.90;;;;;;5072999;28;20208;-71
2023/10/09 06:04:17;;;;;;;4.90;1.00;;;22.60;99.90;;;;;;5017226;28;20202;-72
2023/10/09 06:06:56;;;;;;;4.10;0.60;;;22.70;99.90;;;;;;5074066;28;20197;-72
2023/10/09 06:09:49;;;;;;;4.63;0.60;;;22.70;99.90;;;;;;5072711;28;20295;-72
2023/10/09 06:17:52;;;;;;;1.33;0.60;;;22.70;99.90;;;;;;5068328;28;20259;-71
2023/10/09 06:23:23;;;;;;;2.38;0.68;;;22.80;99.90;;;;;;5075734;28;20274;-72
2023/10/09 06:26:05;;;;;;;2.63;0.50;;;22.70;99.90;;;;;;5071722;28;20258;-71
2023/10/09 06:28:36;;;;;;;1.80;0.50;;;22.70;99.90;;;;;;5077991;28;20591;-72
2023/10/09 06:31:27;;;;;;;7.32;0.82;;;22.60;99.90;;;;;;5072013;28;20204;-72
2023/10/09 06:34:15;;;;;;;2.58;0.50;;;22.50;99.90;;;;;;5075790;28;20224;-71
2023/10/09 06:36:52;;;;;;;2.45;0.60;;;22.50;99.90;;;;;;5070590;28;20932;-71
2023/10/09 06:42:30;;;;;;;1.88;0.50;;;22.30;99.90;;;;;;5066223;28;20710;-73
2023/10/09 06:45:32;;;;;;;2.67;0.50;;;22.20;99.90;;;;;;5070967;28;20199;-71
2023/10/09 06:47:56;;;;;;;3.47;0.70;;;22.00;99.90;;;;;;5073900;28;20200;-72
2023/10/09 06:50:55;;;;;;;3.00;1.00;;;22.00;99.90;;;;;;5072314;28;20235;-72
2023/10/09 06:53:25;;;;;;;4.22;0.90;;;21.90;99.90;;;;;;5068303;28;20484;-71
2023/10/09 06:56:05;;;;;;;2.30;0.60;;;21.80;99.90;;;;;;5070998;28;20200;-71
2023/10/09 06:58:42;;;;;;;1.45;0.50;;;21.70;99.90;;;;;;5074143;28;20203;-71
2023/10/09 07:01:28;;;;;;;2.53;0.55;;;21.70;99.90;;;;;;5072305;28;20203;-72
2023/10/09 07:04:10;;;;;;;3.30;0.88;;;21.70;99.90;;;;;;5071496;28;20197;-71
2023/10/09 07:06:53;;;;;;;2.78;0.60;;;21.60;99.90;;;;;;5073291;28;20193;-72
2023/10/09 07:09:22;;;;;;;2.90;0.57;;;21.50;99.90;;;;;;5071170;28;20213;-71
2023/10/09 07:12:00;;;;;;;3.15;0.77;;;21.50;99.90;;;;;;5072619;28;20228;-71
2023/10/09 07:17:21;;;;;;;4.03;0.75;;;21.30;99.90;;;;;;5079663;28;20211;-71
2023/10/09 07:20:09;;;;;;;1.40;0.60;;;21.30;99.90;;;;;;5075768;28;20638;-72
2023/10/09 07:22:56;;;;;;;2.58;0.90;;;21.20;99.90;;;;;;5072484;28;20200;-72
2023/10/09 07:25:40;;;;;;;2.08;1.00;;;21.10;99.90;;;;;;5070350;28;20193;-72
2023/10/09 07:28:29;;;;;;;2.22;0.50;;;21.10;99.90;;;;;;5065944;28;20193;-71
2023/10/09 07:31:02;;;;;;;3.20;0.70;;;21.10;99.90;;;;;;5071143;28;20327;-71
2023/10/09 07:33:51;;;;;;;4.53;0.70;;;21.00;99.90;;;;;;5067794;28;20278;-72
2023/10/09 07:36:34;;;;;;;2.53;0.65;;;21.00;99.90;;;;;;5069507;28;20196;-72
2023/10/09 07:39:13;;;;;;;4.93;0.82;;;20.90;99.90;;;;;;5070841;28;20665;-72
2023/10/09 07:41:56;;;;;;;3.70;1.25;;;20.80;99.90;;;;;;5067874;28;20192;-72
2023/10/09 07:44:38;;;;;;;2.83;0.80;;;20.70;99.90;;;;;;5071836;28;20193;-72
2023/10/09 07:50:04;;;;;;;8.27;1.10;;;20.60;99.90;;;;;;5054495;28;20782;-71
2023/10/09 07:52:43;;;;;;;4.15;0.90;;;20.50;99.90;;;;;;5067382;28;20193;-71
2023/10/09 07:55:26;;;;;;;3.65;1.10;;;20.40;99.90;;;;;;5069610;28;20192;-72
2023/10/09 07:58:10;;;;;;;4.88;0.93;;;20.30;99.90;;;;;;5070602;28;20557;-71
2023/10/09 08:01:06;;;;;;;2.35;1.00;;;20.20;99.90;;;;;;5056855;28;20190;-72
2023/10/09 08:03:39;;;;;;;3.83;1.42;;;20.10;99.90;;;;;;5061873;28;20196;-72
2023/10/09 08:06:37;;;;;;;2.95;1.20;;;20.10;99.90;;;;;;5069414;28;20193;-72
2023/10/09 08:14:48;;;;;;;4.40;1.00;;;19.90;99.90;;;;;;5034249;28;20269;-71
2023/10/09 08:17:20;;;;;;;4.30;1.00;;;19.80;99.90;;;;;;5068217;28;20212;-71
2023/10/09 08:19:57;;;;;;;4.55;1.00;;;19.70;99.90;;;;;;5063426;28;20215;-72
2023/10/09 08:22:50;;;;;;;6.78;1.10;;;19.70;99.90;;;;;;5060562;28;20208;-72
2023/10/09 08:25:31;;;;;;;3.00;1.15;;;19.60;99.90;;;;;;5058405;28;20294;-72
2023/10/09 08:31:02;;;;;;;5.35;1.20;;;19.60;99.90;;;;;;5067294;28;20865;-72
2023/10/09 08:33:43;;;;;;;4.07;0.90;;;19.50;99.90;;;;;;5068872;28;20239;-72
2023/10/09 08:36:22;;;;;;;2.55;1.00;;;19.40;99.90;;;;;;5061667;28;20208;-72
2023/10/09 08:38:58;;;;;;;6.63;1.20;;;19.40;99.90;;;;;;5066769;28;20749;-72
2023/10/09 08:41:30;;;;;;;2.55;0.93;;;19.40;99.90;;;;;;5064371;28;20567;-73
2023/10/09 08:44:01;;;;;;;6.18;1.08;;;19.40;99.90;;;;;;5064277;28;20202;-72
2023/10/09 08:47:22;;;;;;;3.60;1.02;;;19.40;99.90;;;;;;5070026;28;20203;-73
2023/10/09 08:49:53;;;;;;;4.53;0.88;;;19.30;99.90;;;;;;5057763;28;20229;-73
2023/10/09 08:52:27;;;;;;;2.78;0.90;;;19.30;99.90;;;;;;5067205;28;20198;-72
2023/10/09 08:54:58;;;;;;;3.15;1.00;;;19.30;99.90;;;;;;5069405;28;20200;-73
2023/10/09 08:57:30;;;;;;;3.55;1.00;;;19.20;99.90;;;;;;5066552;28;20197;-72
2023/10/09 10:04:53;;;;;;;3.65;0.80;;;18.70;99.90;;;;;;5060704;28;20277;-71
2023/10/09 10:07:31;;;;;;;2.70;0.70;;;18.60;99.90;;;;;;5068573;28;20615;-71
2023/10/09 10:10:08;;;;;;;4.38;0.80;;;18.60;99.90;;;;;;5069584;28;20213;-71
2023/10/09 10:13:04;;;;;;;2.97;0.60;;;18.50;99.90;;;;;;5073895;28;20204;-73
2023/10/09 11:02:47;;;;;;;3.78;0.90;;;17.80;99.90;;;;;;5065562;28;20310;-71
2023/10/09 11:05:25;;;;;;;4.70;1.08;;;17.80;99.90;;;;;;5063994;28;20205;-72
2023/10/09 11:08:01;;;;;;;5.30;1.02;;;17.70;99.90;;;;;;5073539;28;20246;-72
2023/10/09 11:10:34;;;;;;;3.95;1.08;;;17.60;99.90;;;;;;5075680;28;20689;-71
2023/10/09 11:16:14;;;;;;;5.88;1.23;;;17.50;99.90;;;;;;5066150;28;20209;-72
2023/10/09 11:18:48;;;;;;;5.28;1.05;;;17.50;99.90;;;;;;5072886;28;20205;-72
2023/10/09 11:21:31;;;;;;;5.07;1.20;;;17.40;99.90;;;;;;5073448;28;20211;-71
2023/10/09 11:26:54;;;;;;;4.63;1.30;;;17.40;99.90;;;;;;5072531;28;20693;-72
2023/10/09 11:29:28;;;;;;;5.28;1.25;;;17.30;99.90;;;;;;5065937;28;20246;-72
2023/10/09 11:32:09;;;;;;;3.20;1.10;;;17.40;99.90;;;;;;5059229;28;20227;-71
2023/10/09 11:34:51;;;;;;;4.45;1.00;;;17.30;99.90;;;;;;5071924;28;20250;-71
2023/10/09 11:37:38;;;;;;;5.60;1.77;;;17.30;99.90;;;;;;5073228;28;20679;-71
2023/10/09 11:40:30;;;;;;;6.35;1.65;;;17.20;99.90;;;;;;5073182;28;20211;-72
2023/10/09 11:43:12;;;;;;;4.85;1.80;;;17.20;99.90;;;;;;5072690;28;20189;-71
2023/10/09 23:36:41;;;;;;;12.57;4.07;;;20.90;99.90;;;;;;5054980;28;20244;-85
2023/10/09 23:39:11;;;;;;;8.43;3.20;;;21.20;99.90;;;;;;5072075;28;20270;-85
2023/10/09 23:41:58;;;;;;;6.78;2.50;;;21.30;99.90;;;;;;5076198;28;20604;-84
2023/10/09 23:44:34;;;;;;;15.30;3.10;;;21.50;99.90;;;;;;5079325;28;20188;-84
2023/10/09 23:47:08;;;;;;;8.45;2.45;;;21.60;99.90;;;;;;5077554;28;20196;-83
2023/10/09 23:49:39;;;;;;;7.68;2.40;;;21.20;99.90;;;;;;5076433;28;20279;-82
2023/10/09 23:52:13;;;;;;;7.65;2.35;;;21.10;99.90;;;;;;5074937;28;20303;-83
2023/10/09 23:54:47;;;;;;;9.95;2.75;;;21.20;99.90;;;;;;5077344;28;20225;-84
2023/10/09 23:57:20;;;;;;;6.55;2.50;;;21.50;99.90;;;;;;5079613;28;20201;-83
2023/10/09 23:59:59;;;;;;;8.13;2.45;;;21.80;99.90;;;;;;5076099;28;20207;-82
